リバプール・ジョン・レノン空港の過去48時間の天気

リバプール・ジョン・レノン空港 (Liverpool Airport )

現在時刻: 4/10 05:53 BST (4/10 04:53 UTC) 以下の時間は現地時間です。

過去48時間のMETAR気象情報
時間 風向 風速(m/s) 視程 気温(℃) 湿度(%) 気圧(hPa) 天気現象
10 05:20 南東 3 10km以上 10 87 1025
10 04:50 南東 3 10km以上 10 94 1025
10 04:20 南東 3 10km以上 10 87 1025
10 03:50 南東 3 10km以上 10 87 1025
10 03:20 南東 3 10km以上 10 87 1025
10 02:50 東南東 4 10km以上 10 87 1025
10 02:20 東南東 3 10km以上 11 82 1025
10 01:50 東南東 3 10km以上 11 82 1025
10 01:20 南東 3 10km以上 11 87 1025
10 00:50 不定 2 10km以上 11 87 1025
10 00:20 東南東 3 10km以上 11 87 1026
9 23:50 3 10km以上 11 87 1026
9 23:20 東南東 3 10km以上 11 87 1026
9 22:50 東南東 3 10km以上 12 82 1025
9 22:20 4 10km以上 12 82 1025
9 21:50 5 10km以上 13 82 1025
9 21:20 東南東 3 10km以上 12 82 1025
9 20:50 4 10km以上 12 82 1025
9 20:20 5 10km以上 14 77 1025
9 19:50 4 10km以上 14 77 1025
9 19:20 5 10km以上 16 68 1024
9 18:50 5 10km以上 17 68 1024
9 18:20 東南東 4 10km以上 18 68 1024
9 17:50 東南東 5 10km以上 18 68 1024
9 17:20 東南東 4 10km以上 18 68 1024
9 16:50 東南東 4 10km以上 18 64 1024
9 16:20 東南東 6 10km以上 20 60 1024
9 15:50 5 10km以上 19 64 1025
9 15:20 5 10km以上 19 60 1025
9 14:50 東南東 5 10km以上 19 60 1025
9 14:20 5 10km以上 20 60 1025
9 13:50 東南東 5 10km以上 19 60 1025
9 13:20 東南東 5 10km以上 18 64 1025
9 12:50 東南東 4 10km以上 18 64 1026
9 12:20 東南東 4 10km以上 17 68 1026
9 11:50 東南東 3 10km以上 16 68 1026
9 11:20 東南東 3 10km以上 16 68 1026
9 10:50 東南東 3 10km以上 16 68 1026
9 10:20 東南東 3 10km以上 14 72 1026
9 09:50 4 10km以上 13 82 1026
9 09:20 4 10km以上 13 77 1026
9 08:50 3 10km以上 11 87 1026
9 08:20 東南東 2 10km以上 10 87 1026
9 07:50 不定 2 10km以上 9 87 1025
9 07:20 3 10km以上 8 87 1025
9 06:50 東南東 2 10km以上 8 87 1025
9 06:20 東北東 2 10km以上 7 93 1025
9 05:50 不定 2 10km以上 8 87 1025
9 05:20 北東 1 10km以上 8 87 1025
9 04:50 1 10km以上 9 87 1025
9 04:20 静穏 0 10km以上 9 81 1025
9 03:50 西 2 10km以上 9 87 1025
9 03:20 西 2 10km以上 8 87 1025
9 02:50 西北西 2 10km以上 9 87 1025
9 02:20 北西 1 10km以上 10 76 1025
9 01:50 北西 2 10km以上 10 76 1025
9 01:20 2 10km以上 11 76 1025
9 00:50 北北西 2 10km以上 11 76 1025
9 00:20 北西 2 10km以上 10 82 1025
8 23:50 北北西 1 10km以上 9 81 1025
8 23:20 西 2 10km以上 9 87 1025
8 22:50 北西 1 10km以上 11 76 1025
8 22:20 西北西 3 10km以上 11 76 1025
8 21:50 西北西 2 10km以上 10 76 1025
8 21:20 西北西 2 10km以上 11 71 1025
8 20:50 2 10km以上 15 59 1025
8 20:20 3 10km以上 15 59 1024
8 19:50 3 10km以上 15 59 1024
8 19:20 北北西 5 10km以上 15 59 1024
8 18:50 北西 5 10km以上 17 55 1024
8 18:20 北西 5 10km以上 17 52 1024
8 17:50 北西 5 10km以上 18 52 1023
8 17:20 西北西 3 10km以上 19 49 1023
8 16:50 西 2 10km以上 20 49 1023
8 16:20 西南西 2 10km以上 20 49 1024
8 15:50 不定 2 10km以上 20 46 1024
8 15:20 不定 2 10km以上 20 46 1024
8 14:50 不定 2 10km以上 20 49 1024
8 14:20 不定 2 10km以上 19 49 1024
8 13:50 不定 2 10km以上 18 49 1025
8 13:20 東南東 3 10km以上 19 49 1025
8 12:50 不定 2 10km以上 18 49 1025
8 12:20 不定 2 10km以上 18 52 1025
8 11:50 3 10km以上 17 52 1025
8 11:20 不定 2 10km以上 17 52 1025
8 10:50 不定 1 10km以上 16 59 1026
8 10:20 不定 1 10km以上 15 63 1026
8 09:50 不定 1 10km以上 13 77 1026
8 09:20 不定 2 10km以上 12 77 1025
8 08:50 2 10km以上 12 82 1025
8 08:20 不定 1 10km以上 10 87 1026
8 07:50 2 10km以上 9 87 1025
8 07:20 2 10km以上 8 87 1025
8 06:50 2 10km以上 8 87 1025
8 06:20 東南東 2 10km以上 8 87 1026
EGGP 100420Z AUTO 13005KT 100V160 9999 NCD 10/08 Q1025
EGGP 100350Z AUTO 14006KT 100V160 9999 NCD 10/09 Q1025
EGGP 100320Z AUTO 13005KT 080V180 9999 NCD 10/08 Q1025
EGGP 100250Z AUTO 13006KT 100V160 9999 NCD 10/08 Q1025
EGGP 100220Z AUTO 13006KT 100V160 9999 NCD 10/08 Q1025
EGGP 100150Z AUTO 11007KT 9999 NCD 10/08 Q1025
EGGP 100120Z AUTO 12005KT 080V150 9999 NCD 11/08 Q1025
EGGP 100050Z AUTO 12006KT 9999 NCD 11/08 Q1025
EGGP 100020Z AUTO 13006KT 100V180 9999 NCD 11/09 Q1025
EGGP 092350Z AUTO VRB03KT 9999 NCD 11/09 Q1025
EGGP 092320Z AUTO 11006KT 9999 NCD 11/09 Q1026
EGGP 092250Z AUTO 10006KT 9999 NCD 11/09 Q1026
EGGP 092220Z AUTO 11006KT 9999 NCD 11/09 Q1026
EGGP 092150Z AUTO 11005KT 9999 NCD 12/09 Q1025
EGGP 092120Z AUTO 10007KT 9999 NCD 12/09 Q1025
EGGP 092050Z AUTO 10009KT 9999 NCD 13/10 Q1025
EGGP 092020Z AUTO 11006KT 9999 NCD 12/09 Q1025
EGGP 091950Z AUTO 10007KT 9999 NCD 12/09 Q1025
EGGP 091920Z AUTO 09010KT 9999 SCT032/// 14/10 Q1025
EGGP 091850Z AUTO 09007KT 9999 BKN032/// 14/10 Q1025
EGGP 091820Z AUTO 10010KT 9999 BKN032/// BKN037/// 16/10 Q1024
EGGP 091750Z 10009KT CAVOK 17/11 Q1024
EGGP 091720Z 12007KT 100V160 CAVOK 18/12 Q1024
EGGP 091650Z 11010KT CAVOK 18/12 Q1024
EGGP 091620Z 11007KT CAVOK 18/12 Q1024
EGGP 091550Z AUTO 11008KT 9999 SCT032/// 18/11 Q1024
EGGP 091520Z AUTO 11011KT 9999 SCT032/// 20/12 Q1024
EGGP 091450Z AUTO 10010KT 9999 NCD 19/12 Q1025
EGGP 091420Z AUTO 10010KT 9999 FEW034/// 19/11 Q1025
EGGP 091350Z 11009KT 080V160 CAVOK 19/11 Q1025
EGGP 091320Z 10010KT CAVOK 20/12 Q1025
EGGP 091250Z 11009KT 090V150 CAVOK 19/11 Q1025
EGGP 091220Z 11009KT 080V150 CAVOK 18/11 Q1025
EGGP 091150Z 11007KT 070V160 CAVOK 18/11 Q1026
EGGP 091120Z 11008KT CAVOK 17/11 Q1026
EGGP 091050Z 12006KT 090V190 CAVOK 16/10 Q1026
EGGP 091020Z 12006KT 090V150 CAVOK 16/10 Q1026
EGGP 090950Z 12006KT 090V170 CAVOK 16/10 Q1026
EGGP 090920Z 12005KT 090V170 CAVOK 14/09 Q1026
EGGP 090850Z 10007KT CAVOK 13/10 Q1026
EGGP 090820Z 09007KT CAVOK 13/09 Q1026
EGGP 090750Z 10006KT CAVOK 11/09 Q1026
EGGP 090720Z 11003KT CAVOK 10/08 Q1026
EGGP 090650Z VRB03KT CAVOK 09/07 Q1025
EGGP 090620Z 09005KT CAVOK 08/06 Q1025
EGGP 090550Z 11003KT CAVOK 08/06 Q1025
EGGP 090520Z AUTO 07003KT 9999 NCD 07/06 Q1025
EGGP 090450Z AUTO VRB03KT 9999 NCD 08/06 Q1025
EGGP 090420Z AUTO 05002KT 9999 NCD 08/06 Q1025
EGGP 090350Z AUTO 09002KT 9999 NCD 09/07 Q1025
EGGP 090320Z AUTO 00000KT 9999 NCD 09/06 Q1025
EGGP 090250Z AUTO 28003KT 9999 NCD 09/07 Q1025
EGGP 090220Z AUTO 27004KT 9999 NCD 08/06 Q1025
EGGP 090150Z AUTO 29003KT 9999 NCD 09/07 Q1025
EGGP 090120Z AUTO 31002KT 9999 NCD 10/06 Q1025
EGGP 090050Z AUTO 31003KT 9999 NCD 10/06 Q1025
EGGP 090020Z AUTO 35004KT 9999 NCD 11/07 Q1025
EGGP 082350Z AUTO 33004KT 9999 NCD 11/07 Q1025
EGGP 082320Z AUTO 31003KT 9999 NCD 10/07 Q1025
EGGP 082250Z AUTO 33002KT 9999 NCD 09/06 Q1025
EGGP 082220Z AUTO 28004KT 9999 NCD 09/07 Q1025
EGGP 082150Z AUTO 32002KT 9999 NCD 11/07 Q1025
EGGP 082120Z AUTO 30005KT 9999 NCD 11/07 Q1025
EGGP 082050Z AUTO 30004KT 9999 NCD 10/06 Q1025
EGGP 082020Z AUTO 29004KT 9999 NCD 11/06 Q1025
EGGP 081950Z AUTO 36004KT 9999 NCD 15/07 Q1025
EGGP 081920Z AUTO 35006KT 9999 NCD 15/07 Q1024
EGGP 081850Z AUTO 35005KT 9999 NCD 15/07 Q1024
EGGP 081820Z 34009KT CAVOK 15/07 Q1024
EGGP 081750Z 32010KT CAVOK 17/08 Q1024
EGGP 081720Z 31010KT CAVOK 17/07 Q1024
EGGP 081650Z 31009KT CAVOK 18/08 Q1023
EGGP 081620Z 29005KT 250V320 CAVOK 19/08 Q1023
EGGP 081550Z 27004KT 230V330 CAVOK 20/09 Q1023
EGGP 081520Z 24004KT 190V330 CAVOK 20/09 Q1024
EGGP 081450Z VRB03KT CAVOK 20/08 Q1024
EGGP 081420Z AUTO VRB03KT 9999 SCT032/// 20/08 Q1024
EGGP 081350Z VRB03KT CAVOK 20/09 Q1024
EGGP 081320Z VRB03KT CAVOK 19/08 Q1024
EGGP 081250Z VRB03KT CAVOK 18/07 Q1025
EGGP 081220Z 11005KT 080V160 CAVOK 19/08 Q1025
EGGP 081150Z VRB03KT CAVOK 18/07 Q1025
EGGP 081120Z VRB04KT CAVOK 18/08 Q1025
EGGP 081050Z 18005KT 120V220 CAVOK 17/07 Q1025
EGGP 081020Z VRB03KT CAVOK 17/07 Q1025
EGGP 080950Z VRB02KT CAVOK 16/08 Q1026
EGGP 080920Z VRB02KT CAVOK 15/08 Q1026
EGGP 080850Z VRB02KT CAVOK 13/09 Q1026
EGGP 080820Z VRB03KT 9999 FEW045 12/08 Q1025
EGGP 080750Z 10004KT 9999 FEW040 12/09 Q1025
EGGP 080720Z VRB02KT 9999 FEW043 10/08 Q1026
EGGP 080650Z 10004KT 9999 FEW045 09/07 Q1025
EGGP 080620Z 10004KT 9999 FEW040 08/06 Q1025
EGGP 080550Z 09004KT 9999 FEW040 08/06 Q1025
EGGP 080520Z AUTO 11004KT 9999 NCD 08/06 Q1026